createdAt,value
2022-09-27T00:01:31.125Z,12.77
2022-09-27T00:04:02.592Z,12.80
2022-09-27T00:06:32.789Z,12.83
2022-09-27T00:09:03.606Z,12.85
2022-09-27T00:11:39.227Z,12.82
2022-09-27T00:14:09.098Z,12.82
2022-09-27T00:16:39.469Z,12.81
2022-09-27T00:19:18.773Z,12.80
2022-09-27T00:21:48.132Z,12.81
2022-09-27T00:24:21.433Z,12.77
2022-09-27T00:26:50.619Z,12.73
2022-09-27T00:29:20.597Z,12.72
2022-09-27T00:31:50.378Z,12.70
2022-09-27T00:34:23.019Z,12.69
2022-09-27T00:36:53.235Z,12.67
2022-09-27T00:39:23.159Z,12.65
2022-09-27T00:41:52.252Z,12.62
2022-09-27T00:44:33.638Z,12.60
2022-09-27T00:47:08.700Z,12.57
2022-09-27T00:49:46.781Z,12.59
2022-09-27T00:52:28.979Z,12.59
2022-09-27T00:55:03.749Z,12.55
2022-09-27T00:57:33.065Z,12.53
2022-09-27T01:00:09.828Z,12.54
2022-09-27T01:02:42.800Z,12.54
2022-09-27T01:05:13.652Z,12.54
2022-09-27T01:07:44.057Z,12.53
2022-09-27T01:10:14.091Z,12.50
2022-09-27T01:12:49.381Z,12.51
2022-09-27T01:15:50.113Z,12.52
2022-09-27T01:18:35.957Z,12.53
2022-09-27T01:21:34.013Z,12.52
2022-09-27T01:24:25.031Z,12.51
2022-09-27T01:27:14.761Z,12.55
2022-09-27T01:30:21.419Z,12.54
2022-09-27T01:33:06.885Z,12.54
2022-09-27T01:36:07.801Z,12.53
2022-09-27T01:39:05.037Z,12.51
2022-09-27T01:41:54.237Z,12.51
2022-09-27T01:44:51.279Z,12.45
2022-09-27T01:47:26.314Z,12.43
2022-09-27T01:50:26.707Z,12.44
2022-09-27T01:53:25.528Z,12.43
2022-09-27T01:56:00.390Z,12.45
2022-09-27T01:58:57.847Z,12.45
2022-09-27T02:01:29.570Z,12.45
2022-09-27T02:04:00.424Z,12.40
2022-09-27T02:06:45.520Z,12.36
2022-09-27T02:09:33.941Z,12.37
2022-09-27T02:12:11.435Z,12.40
2022-09-27T02:15:05.329Z,12.41
2022-09-27T02:18:02.879Z,12.41
2022-09-27T02:20:42.858Z,12.43
2022-09-27T02:23:27.821Z,12.45
2022-09-27T02:26:25.063Z,12.45
2022-09-27T02:29:18.441Z,12.44
2022-09-27T02:31:50.266Z,12.43
2022-09-27T02:34:25.177Z,12.43
2022-09-27T02:36:54.864Z,12.43
2022-09-27T02:39:24.258Z,12.44
2022-09-27T02:41:58.073Z,12.45
2022-09-27T02:44:28.714Z,12.43
2022-09-27T02:47:21.838Z,12.44
2022-09-27T02:50:27.879Z,12.42
2022-09-27T02:53:22.696Z,12.40
2022-09-27T02:56:41.089Z,12.40
2022-09-27T02:59:45.881Z,12.40
2022-09-27T03:02:53.212Z,12.42
2022-09-27T03:05:46.633Z,12.42
2022-09-27T03:08:16.476Z,12.46
2022-09-27T03:10:45.808Z,12.47
2022-09-27T03:13:16.035Z,12.48
2022-09-27T03:15:46.925Z,12.47
2022-09-27T03:18:35.802Z,12.46
2022-09-27T03:21:12.911Z,12.46
2022-09-27T03:23:43.016Z,12.48
2022-09-27T03:26:13.268Z,12.50
2022-09-27T03:28:43.428Z,12.52
2022-09-27T03:31:12.824Z,12.53
2022-09-27T03:33:52.961Z,12.55
2022-09-27T03:36:22.324Z,12.56
2022-09-27T03:38:52.528Z,12.57
2022-09-27T03:41:22.775Z,12.56
2022-09-27T03:43:52.121Z,12.56
2022-09-27T03:46:22.047Z,12.57
2022-09-27T03:48:52.129Z,12.60
2022-09-27T03:51:21.735Z,12.61
2022-09-27T03:53:52.481Z,12.62
2022-09-27T03:56:22.241Z,12.59
2022-09-27T03:58:51.988Z,12.58
2022-09-27T04:01:23.537Z,12.59
2022-09-27T04:03:53.676Z,12.58
2022-09-27T04:06:27.994Z,12.59
2022-09-27T04:08:58.144Z,12.57
2022-09-27T04:11:30.469Z,12.55
2022-09-27T04:14:00.654Z,12.56
2022-09-27T04:16:32.315Z,12.58
2022-09-27T04:19:16.357Z,12.57
2022-09-27T04:21:52.117Z,12.57
2022-09-27T04:24:21.818Z,12.59
2022-09-27T04:26:54.446Z,12.60
2022-09-27T04:29:26.702Z,12.61
2022-09-27T04:31:56.886Z,12.59
2022-09-27T04:34:56.397Z,12.55
2022-09-27T04:37:27.066Z,12.55
2022-09-27T04:39:58.235Z,12.58
2022-09-27T04:42:28.885Z,12.59
2022-09-27T04:44:59.245Z,12.58
2022-09-27T04:47:28.760Z,12.59
2022-09-27T04:49:58.653Z,12.57
2022-09-27T04:52:27.666Z,12.57
2022-09-27T04:54:58.830Z,12.58
2022-09-27T04:57:29.587Z,12.58
2022-09-27T05:00:00.437Z,12.59
2022-09-27T05:02:31.606Z,12.60
2022-09-27T05:05:04.212Z,12.63
2022-09-27T05:07:38.159Z,12.63
2022-09-27T05:10:10.812Z,12.63
2022-09-27T05:12:40.036Z,12.64
2022-09-27T05:15:10.949Z,12.64
2022-09-27T05:17:59.389Z,12.67
2022-09-27T05:20:37.511Z,12.67
2022-09-27T05:23:15.192Z,12.69
2022-09-27T05:25:45.130Z,12.70
2022-09-27T05:28:14.938Z,12.76
2022-09-27T05:30:45.660Z,12.77
2022-09-27T05:33:18.294Z,12.76
2022-09-27T05:35:55.287Z,12.76
2022-09-27T05:38:27.198Z,12.77
2022-09-27T05:40:59.722Z,12.80
2022-09-27T05:43:29.332Z,12.84
2022-09-27T05:46:01.131Z,12.87
2022-09-27T05:48:32.114Z,12.83
2022-09-27T05:51:07.025Z,12.84
2022-09-27T05:53:38.689Z,12.86
2022-09-27T05:56:11.419Z,12.90
2022-09-27T05:59:00.302Z,12.92
2022-09-27T06:01:32.735Z,12.92
2022-09-27T06:04:16.187Z,12.95
2022-09-27T06:06:48.188Z,12.99
2022-09-27T06:09:19.302Z,13.01
2022-09-27T06:11:51.238Z,13.07
2022-09-27T06:14:22.191Z,13.09
2022-09-27T06:17:04.505Z,13.12
2022-09-27T06:19:36.477Z,13.11
2022-09-27T06:22:07.769Z,13.11
2022-09-27T06:24:43.846Z,13.13
2022-09-27T06:27:18.992Z,13.12
2022-09-27T06:30:01.257Z,13.13
2022-09-27T06:33:02.254Z,13.15
2022-09-27T06:35:46.790Z,13.14
2022-09-27T06:38:18.282Z,13.15
2022-09-27T06:40:50.655Z,13.17
2022-09-27T06:43:35.554Z,13.21
2022-09-27T06:46:19.547Z,13.25
2022-09-27T06:48:51.068Z,13.28
2022-09-27T06:51:22.872Z,13.33
2022-09-27T06:53:53.803Z,13.38
2022-09-27T06:56:23.786Z,13.38
2022-09-27T06:59:13.745Z,13.38
2022-09-27T07:01:46.174Z,13.39
2022-09-27T07:04:34.527Z,13.37
2022-09-27T07:07:10.498Z,13.34
2022-09-27T07:09:43.270Z,13.35
2022-09-27T07:12:14.594Z,13.37
2022-09-27T07:14:45.148Z,13.41
2022-09-27T07:17:16.774Z,13.43
2022-09-27T07:19:49.295Z,13.45
2022-09-27T07:22:19.860Z,13.44
2022-09-27T07:24:52.098Z,13.44
2022-09-27T07:27:25.267Z,13.43
2022-09-27T07:29:55.605Z,13.44
2022-09-27T07:32:27.245Z,13.48
2022-09-27T07:34:57.438Z,13.51
2022-09-27T07:37:27.304Z,13.54
2022-09-27T07:39:57.744Z,13.53
2022-09-27T07:42:28.773Z,13.54
2022-09-27T07:45:00.123Z,13.55
2022-09-27T07:47:48.708Z,13.55
2022-09-27T07:50:22.073Z,13.56
2022-09-27T07:52:56.871Z,13.60
2022-09-27T07:55:38.712Z,13.61
2022-09-27T07:58:13.484Z,13.59
2022-09-27T08:00:44.032Z,13.62
2022-09-27T08:03:15.817Z,13.63
2022-09-27T08:05:48.048Z,13.64
2022-09-27T08:08:20.374Z,13.62
2022-09-27T08:10:53.440Z,13.62
2022-09-27T08:13:24.447Z,13.64
2022-09-27T08:15:55.427Z,13.69
2022-09-27T08:18:26.248Z,13.71
2022-09-27T08:20:59.972Z,13.74
2022-09-27T08:23:35.201Z,13.74
2022-09-27T08:26:12.796Z,13.75
2022-09-27T08:28:53.511Z,13.78
2022-09-27T08:31:25.952Z,13.80
2022-09-27T08:33:58.264Z,13.83
2022-09-27T08:36:30.605Z,13.85
2022-09-27T08:39:00.537Z,13.84
2022-09-27T08:41:39.939Z,13.87
2022-09-27T08:44:20.791Z,13.91
2022-09-27T08:47:03.157Z,13.91
2022-09-27T08:50:00.990Z,13.93
2022-09-27T08:52:43.825Z,13.94
2022-09-27T08:55:54.646Z,13.93
2022-09-27T08:58:42.152Z,13.94
2022-09-27T09:01:16.154Z,13.93
2022-09-27T09:03:52.059Z,13.93
2022-09-27T09:06:25.870Z,13.95
2022-09-27T09:09:18.674Z,13.99
2022-09-27T09:12:46.791Z,14.02
2022-09-27T09:15:58.775Z,14.04
2022-09-27T09:19:04.251Z,14.10
2022-09-27T09:22:10.201Z,14.12
2022-09-27T09:25:02.338Z,14.14
2022-09-27T09:27:52.230Z,14.14
2022-09-27T09:30:24.758Z,14.15
2022-09-27T09:33:17.180Z,14.17
2022-09-27T09:36:03.948Z,14.20
2022-09-27T09:38:51.905Z,14.25
2022-09-27T09:41:31.156Z,14.29
2022-09-27T09:44:08.007Z,14.33
2022-09-27T09:46:45.760Z,14.31
2022-09-27T09:49:25.643Z,14.32
2022-09-27T09:52:08.736Z,14.34
2022-09-27T09:54:47.078Z,14.35
2022-09-27T09:57:28.357Z,14.37
2022-09-27T10:00:17.650Z,14.36
2022-09-27T10:02:48.096Z,14.39
2022-09-27T10:05:26.301Z,14.44
2022-09-27T10:07:59.802Z,14.46
2022-09-27T10:10:29.644Z,14.49
2022-09-27T10:13:21.439Z,14.47
2022-09-27T10:16:03.883Z,14.44
2022-09-27T10:18:33.789Z,14.44
2022-09-27T10:21:08.362Z,14.46
2022-09-27T10:23:38.082Z,14.49
2022-09-27T10:26:12.240Z,14.50
2022-09-27T10:28:51.622Z,14.48
2022-09-27T10:31:22.816Z,14.52
2022-09-27T10:34:06.058Z,14.50
2022-09-27T10:36:42.931Z,14.52
2022-09-27T10:39:22.745Z,14.54
2022-09-27T10:41:52.039Z,14.55
2022-09-27T10:44:32.577Z,14.56
2022-09-27T10:47:10.462Z,14.63
2022-09-27T10:49:44.615Z,14.67
2022-09-27T10:52:23.500Z,14.70
2022-09-27T10:55:04.057Z,14.70
2022-09-27T10:57:33.207Z,14.65
2022-09-27T11:00:32.690Z,14.64
2022-09-27T11:03:08.413Z,14.65
2022-09-27T11:05:39.355Z,14.66
2022-09-27T11:08:30.647Z,14.67
2022-09-27T11:11:19.686Z,14.66
2022-09-27T11:14:07.884Z,14.65
2022-09-27T11:17:03.472Z,14.66
2022-09-27T11:19:41.687Z,14.67
2022-09-27T11:22:41.587Z,14.64
2022-09-27T11:25:36.506Z,14.60
2022-09-27T11:28:36.556Z,14.58
2022-09-27T11:31:35.669Z,14.59
2022-09-27T11:34:12.304Z,14.60
2022-09-27T11:37:14.277Z,14.63
2022-09-27T11:40:10.721Z,14.66
2022-09-27T11:43:07.374Z,14.69
2022-09-27T11:46:16.714Z,14.73
2022-09-27T11:49:19.775Z,14.73
2022-09-27T11:52:36.477Z,14.78
2022-09-27T11:55:26.168Z,14.87
2022-09-27T11:58:27.629Z,14.92
2022-09-27T12:01:28.786Z,14.97
2022-09-27T12:04:29.153Z,15.02
2022-09-27T12:07:25.845Z,15.04
2022-09-27T12:09:59.518Z,15.03
2022-09-27T12:12:31.036Z,15.01
2022-09-27T12:15:06.935Z,15.01
2022-09-27T12:17:40.366Z,15.01
2022-09-27T12:20:28.595Z,15.04
2022-09-27T12:23:17.877Z,15.05
2022-09-27T12:25:52.617Z,15.05
2022-09-27T12:28:55.007Z,15.06
2022-09-27T12:31:46.492Z,15.07
2022-09-27T12:34:45.834Z,15.06
2022-09-27T12:37:38.553Z,15.08
2022-09-27T12:40:26.175Z,15.10
2022-09-27T12:43:11.903Z,15.12
2022-09-27T12:46:22.962Z,15.14
2022-09-27T12:49:00.446Z,15.18
2022-09-27T12:51:54.041Z,15.18
2022-09-27T12:54:56.135Z,15.19
2022-09-27T12:57:58.677Z,15.18
2022-09-27T13:00:32.328Z,15.16
2022-09-27T13:03:52.981Z,15.16
2022-09-27T13:06:39.483Z,15.16
2022-09-27T13:09:42.067Z,15.13
2022-09-27T13:12:18.978Z,15.11
2022-09-27T13:15:15.648Z,15.09
2022-09-27T13:17:53.360Z,15.10
2022-09-27T13:20:44.168Z,15.10
2022-09-27T13:23:29.731Z,15.08
2022-09-27T13:26:03.527Z,15.07
2022-09-27T13:28:56.715Z,15.07
2022-09-27T13:32:01.131Z,15.07
2022-09-27T13:34:57.325Z,15.06
2022-09-27T13:37:55.910Z,15.05
2022-09-27T13:40:32.682Z,15.04
2022-09-27T13:43:17.958Z,15.01
2022-09-27T13:46:01.718Z,15.01
2022-09-27T13:48:43.139Z,15.02
2022-09-27T13:51:33.638Z,15.01
2022-09-27T13:54:10.568Z,15.02
2022-09-27T13:56:46.408Z,15.03
2022-09-27T13:59:49.301Z,15.03
2022-09-27T14:02:29.451Z,15.04
2022-09-27T14:05:00.005Z,15.05
2022-09-27T14:07:40.568Z,15.06
2022-09-27T14:10:21.623Z,15.08
2022-09-27T14:12:53.391Z,15.11
2022-09-27T14:15:30.718Z,15.12
2022-09-27T14:18:00.157Z,15.13
2022-09-27T14:20:42.088Z,15.13
2022-09-27T14:23:23.654Z,15.12
2022-09-27T14:25:54.942Z,15.12
2022-09-27T14:28:29.066Z,15.14
2022-09-27T14:31:18.444Z,15.13
2022-09-27T14:33:57.443Z,15.15
2022-09-27T14:36:52.953Z,15.14
2022-09-27T14:39:35.933Z,15.14
2022-09-27T14:42:21.968Z,15.14
2022-09-27T14:44:51.351Z,15.15
2022-09-27T14:47:26.526Z,15.13
2022-09-27T14:50:05.751Z,15.10
2022-09-27T14:52:35.274Z,15.12
2022-09-27T14:55:16.121Z,15.13
2022-09-27T14:57:59.080Z,15.11
2022-09-27T15:00:35.165Z,15.10
2022-09-27T15:03:06.413Z,15.09
2022-09-27T15:05:36.376Z,15.09
2022-09-27T15:08:06.636Z,15.10
2022-09-27T15:10:37.099Z,15.11
2022-09-27T15:13:09.773Z,15.11
2022-09-27T15:15:43.060Z,15.12
2022-09-27T15:18:41.241Z,15.11
2022-09-27T15:21:16.451Z,15.13
2022-09-27T15:23:46.066Z,15.15
2022-09-27T15:26:23.400Z,15.14
2022-09-27T15:28:52.173Z,15.10
2022-09-27T15:31:35.310Z,15.09
2022-09-27T15:34:06.335Z,15.05
2022-09-27T15:36:54.881Z,15.06
2022-09-27T15:39:37.246Z,15.05
2022-09-27T15:42:17.509Z,15.04
2022-09-27T15:44:50.141Z,14.97
2022-09-27T15:47:39.861Z,14.91
2022-09-27T15:50:30.782Z,14.89
2022-09-27T15:53:02.790Z,14.87
2022-09-27T15:55:33.100Z,14.83
2022-09-27T15:58:21.010Z,14.80
2022-09-27T16:00:57.073Z,14.77
2022-09-27T16:03:27.218Z,14.71
2022-09-27T16:05:58.076Z,14.61
2022-09-27T16:08:29.578Z,14.59
2022-09-27T16:10:59.626Z,14.58
2022-09-27T16:13:32.941Z,14.56
2022-09-27T16:16:02.888Z,14.54
2022-09-27T16:18:34.420Z,14.52
2022-09-27T16:21:04.695Z,14.50
2022-09-27T16:23:34.923Z,14.49
2022-09-27T16:26:05.109Z,14.49
2022-09-27T16:28:34.884Z,14.47
2022-09-27T16:31:07.826Z,14.47
2022-09-27T16:33:37.009Z,14.45
2022-09-27T16:36:09.782Z,14.45
2022-09-27T16:38:42.028Z,14.45
2022-09-27T16:41:11.774Z,14.44
2022-09-27T16:43:44.891Z,14.45
2022-09-27T16:46:16.099Z,14.43
2022-09-27T16:48:49.512Z,14.44
2022-09-27T16:51:39.979Z,14.44
2022-09-27T16:54:09.685Z,14.45
2022-09-27T16:56:40.028Z,14.43
2022-09-27T16:59:09.490Z,14.40
2022-09-27T17:01:40.128Z,14.38
2022-09-27T17:04:09.642Z,14.35
2022-09-27T17:06:38.892Z,14.35
2022-09-27T17:09:08.327Z,14.36
2022-09-27T17:11:37.191Z,14.34
2022-09-27T17:14:08.218Z,14.34
2022-09-27T17:16:38.016Z,14.32
2022-09-27T17:19:09.160Z,14.32
2022-09-27T17:21:38.382Z,14.33
2022-09-27T17:24:09.809Z,14.33
2022-09-27T17:26:40.224Z,14.33
2022-09-27T17:29:12.625Z,14.32
2022-09-27T17:31:42.625Z,14.32
2022-09-27T17:34:13.526Z,14.32
2022-09-27T17:36:44.022Z,14.31
2022-09-27T17:39:14.679Z,14.28
2022-09-27T17:41:46.346Z,14.25
2022-09-27T17:44:18.550Z,14.21
2022-09-27T17:46:50.689Z,14.20
2022-09-27T17:49:38.205Z,14.21
2022-09-27T17:52:08.780Z,14.22
2022-09-27T17:54:40.087Z,14.21
2022-09-27T17:57:10.551Z,14.18
2022-09-27T17:59:41.233Z,14.13
2022-09-27T18:02:10.326Z,14.11
2022-09-27T18:04:39.963Z,14.08
2022-09-27T18:07:11.212Z,14.09
2022-09-27T18:09:43.234Z,14.09
2022-09-27T18:12:13.467Z,14.06
2022-09-27T18:14:45.886Z,14.05
2022-09-27T18:17:16.913Z,14.04
2022-09-27T18:19:46.621Z,14.00
2022-09-27T18:22:16.456Z,13.95
2022-09-27T18:24:46.478Z,13.95
2022-09-27T18:27:17.826Z,13.94
2022-09-27T18:29:46.877Z,13.95
2022-09-27T18:32:16.913Z,13.95
2022-09-27T18:34:46.020Z,13.98
2022-09-27T18:37:15.403Z,13.96
2022-09-27T18:39:45.479Z,13.99
2022-09-27T18:42:14.380Z,14.00
2022-09-27T18:44:44.124Z,14.01
2022-09-27T18:47:15.155Z,14.01
2022-09-27T18:49:44.815Z,14.00
2022-09-27T18:52:13.711Z,14.02
2022-09-27T18:54:43.910Z,14.03
2022-09-27T18:57:12.988Z,14.03
2022-09-27T18:59:42.790Z,13.98
2022-09-27T19:02:13.076Z,13.95
2022-09-27T19:04:42.448Z,13.97
2022-09-27T19:07:11.745Z,13.94
2022-09-27T19:09:40.604Z,13.92
2022-09-27T19:12:10.309Z,13.96
2022-09-27T19:14:41.869Z,13.96
2022-09-27T19:17:11.888Z,13.99
2022-09-27T19:19:42.005Z,13.99
2022-09-27T19:22:11.273Z,13.97
2022-09-27T19:24:40.674Z,13.98
2022-09-27T19:27:11.099Z,14.00
2022-09-27T19:29:40.554Z,13.97
2022-09-27T19:32:10.386Z,13.97
2022-09-27T19:34:40.318Z,13.98
2022-09-27T19:37:11.252Z,13.99
2022-09-27T19:39:41.293Z,14.00
2022-09-27T19:42:11.011Z,14.00
2022-09-27T19:44:41.116Z,14.00
2022-09-27T19:47:10.817Z,14.00
2022-09-27T19:49:40.758Z,14.00
2022-09-27T19:52:10.434Z,14.00
2022-09-27T19:54:40.209Z,13.98
2022-09-27T19:57:10.249Z,13.98
2022-09-27T19:59:42.269Z,13.98
2022-09-27T20:02:12.205Z,13.95
2022-09-27T20:04:41.986Z,13.93
2022-09-27T20:07:11.128Z,13.90
2022-09-27T20:09:42.034Z,13.90
2022-09-27T20:12:11.561Z,13.90
2022-09-27T20:14:42.582Z,13.90
2022-09-27T20:17:12.154Z,13.91
2022-09-27T20:19:42.265Z,13.93
2022-09-27T20:22:12.096Z,13.93
2022-09-27T20:24:41.521Z,13.92
2022-09-27T20:27:11.389Z,13.92
2022-09-27T20:29:41.100Z,13.92
2022-09-27T20:32:26.756Z,13.93
2022-09-27T20:34:42.371Z,13.92
2022-09-27T20:37:11.925Z,13.92
2022-09-27T20:39:42.419Z,13.94
2022-09-27T20:42:13.215Z,13.92
2022-09-27T20:44:42.606Z,13.93
2022-09-27T20:47:12.507Z,13.92
2022-09-27T20:49:42.717Z,13.94
2022-09-27T20:52:12.124Z,13.94
2022-09-27T20:54:41.389Z,13.94
2022-09-27T20:57:12.872Z,13.95
2022-09-27T20:59:43.089Z,13.93
2022-09-27T21:02:12.024Z,13.90
2022-09-27T21:04:41.731Z,13.90
2022-09-27T21:07:11.799Z,13.92
2022-09-27T21:09:41.260Z,13.94
2022-09-27T21:12:11.546Z,13.94
2022-09-27T21:14:43.843Z,13.94
2022-09-27T21:17:13.541Z,13.92
2022-09-27T21:19:42.977Z,13.92
2022-09-27T21:22:12.857Z,13.91
2022-09-27T21:24:42.368Z,13.92
2022-09-27T21:27:12.194Z,13.91
2022-09-27T21:29:41.747Z,13.91
2022-09-27T21:32:11.396Z,13.93
2022-09-27T21:34:41.607Z,13.93
2022-09-27T21:37:11.134Z,13.94
2022-09-27T21:39:40.502Z,13.94
2022-09-27T21:42:11.010Z,13.93
2022-09-27T21:44:40.618Z,13.93
2022-09-27T21:47:10.877Z,13.91
2022-09-27T21:49:40.513Z,13.90
2022-09-27T21:52:09.578Z,13.90
2022-09-27T21:54:39.723Z,13.91
2022-09-27T21:57:09.244Z,13.89
2022-09-27T21:59:39.489Z,13.89
2022-09-27T22:02:09.497Z,13.87
2022-09-27T22:04:39.452Z,13.87
2022-09-27T22:07:09.378Z,13.90
2022-09-27T22:09:39.597Z,13.91
2022-09-27T22:12:09.619Z,13.93
2022-09-27T22:14:40.957Z,13.93
2022-09-27T22:17:09.848Z,13.94
2022-09-27T22:19:39.597Z,13.92
2022-09-27T22:22:08.887Z,13.93
2022-09-27T22:24:38.231Z,13.94
2022-09-27T22:27:08.748Z,13.96
2022-09-27T22:29:37.692Z,13.95
2022-09-27T22:32:08.541Z,13.96
2022-09-27T22:34:38.427Z,13.99
2022-09-27T22:37:08.099Z,13.99
2022-09-27T22:39:38.281Z,14.00
2022-09-27T22:42:08.985Z,14.00
2022-09-27T22:44:39.506Z,14.00
2022-09-27T22:47:09.201Z,14.00
2022-09-27T22:49:38.960Z,14.00
2022-09-27T22:52:08.038Z,13.98
2022-09-27T22:54:37.477Z,13.94
2022-09-27T22:57:07.701Z,13.94
2022-09-27T22:59:37.730Z,13.92
2022-09-27T23:02:07.840Z,13.90
2022-09-27T23:04:37.138Z,13.91
2022-09-27T23:07:07.585Z,13.91
2022-09-27T23:09:38.092Z,13.91
2022-09-27T23:12:09.029Z,13.91
2022-09-27T23:14:42.549Z,13.90
2022-09-27T23:17:11.324Z,13.90
2022-09-27T23:19:42.569Z,13.88
2022-09-27T23:22:13.844Z,13.89
2022-09-27T23:24:44.039Z,13.88
2022-09-27T23:27:32.367Z,13.91
2022-09-27T23:30:01.511Z,13.90
2022-09-27T23:32:32.071Z,13.88
2022-09-27T23:35:01.618Z,13.88
2022-09-27T23:37:31.472Z,13.88
2022-09-27T23:40:17.046Z,13.89
2022-09-27T23:42:48.105Z,13.88
2022-09-27T23:45:18.989Z,13.86
2022-09-27T23:47:48.700Z,13.85
2022-09-27T23:50:17.928Z,13.86
2022-09-27T23:52:47.640Z,13.86
2022-09-27T23:55:17.883Z,13.85
2022-09-27T23:57:47.738Z,13.85
